sensor_id;sensor_type;location;lat;lon;timestamp;pressure;altitude;pressure_sealevel;temperature;humidity
59315;BME280;46521;50.160;20.802;2023-04-06T00:15:46;100087.48;;;-0.96;56.33
59315;BME280;46521;50.160;20.802;2023-04-06T00:25:47;100072.33;;;-1.04;56.19
59315;BME280;46521;50.160;20.802;2023-04-06T00:35:49;100064.21;;;-1.14;56.29
59315;BME280;46521;50.160;20.802;2023-04-06T00:45:51;100046.52;;;-0.91;56.78
59315;BME280;46521;50.160;20.802;2023-04-06T00:55:53;100049.21;;;-0.77;56.94
59315;BME280;46521;50.160;20.802;2023-04-06T01:05:54;100049.47;;;-0.81;56.97
59315;BME280;46521;50.160;20.802;2023-04-06T01:15:59;100029.38;;;-0.94;57.38
59315;BME280;46521;50.160;20.802;2023-04-06T01:26:01;100027.12;;;-1.00;57.36
59315;BME280;46521;50.160;20.802;2023-04-06T01:36:03;100024.52;;;-1.00;57.46
59315;BME280;46521;50.160;20.802;2023-04-06T01:46:05;100033.55;;;-1.07;57.24
59315;BME280;46521;50.160;20.802;2023-04-06T01:56:07;100026.44;;;-1.19;57.90
59315;BME280;46521;50.160;20.802;2023-04-06T02:06:08;100013.80;;;-1.25;58.02
59315;BME280;46521;50.160;20.802;2023-04-06T02:16:10;100013.95;;;-1.29;58.35
59315;BME280;46521;50.160;20.802;2023-04-06T02:26:11;100011.80;;;-1.20;57.92
59315;BME280;46521;50.160;20.802;2023-04-06T02:36:13;99996.89;;;-1.17;57.88
59315;BME280;46521;50.160;20.802;2023-04-06T02:46:14;99999.08;;;-1.25;58.36
59315;BME280;46521;50.160;20.802;2023-04-06T02:56:16;100009.30;;;-1.22;58.24
59315;BME280;46521;50.160;20.802;2023-04-06T03:06:17;99995.89;;;-1.14;58.63
59315;BME280;46521;50.160;20.802;2023-04-06T03:16:19;100000.23;;;-1.15;58.09
59315;BME280;46521;50.160;20.802;2023-04-06T03:26:21;100000.56;;;-1.21;58.13
59315;BME280;46521;50.160;20.802;2023-04-06T03:36:23;100003.25;;;-1.22;58.68
59315;BME280;46521;50.160;20.802;2023-04-06T03:46:26;99993.56;;;-1.35;58.92
59315;BME280;46521;50.160;20.802;2023-04-06T03:56:27;99982.73;;;-1.43;58.43
59315;BME280;46521;50.160;20.802;2023-04-06T04:06:29;99981.75;;;-1.40;59.39
59315;BME280;46521;50.160;20.802;2023-04-06T04:16:31;99990.97;;;-1.35;59.28
59315;BME280;46521;50.160;20.802;2023-04-06T04:26:32;99982.73;;;-1.27;59.81
59315;BME280;46521;50.160;20.802;2023-04-06T04:36:34;99978.41;;;-1.27;59.61
59315;BME280;46521;50.160;20.802;2023-04-06T04:46:35;99974.70;;;-1.22;59.67
59315;BME280;46521;50.160;20.802;2023-04-06T04:56:37;99970.11;;;-1.17;59.59
59315;BME280;46521;50.160;20.802;2023-04-06T05:06:38;99964.41;;;-1.08;59.85
59315;BME280;46521;50.160;20.802;2023-04-06T05:16:40;99965.20;;;-0.92;59.80
59315;BME280;46521;50.160;20.802;2023-04-06T05:26:42;99973.13;;;-0.79;59.59
59315;BME280;46521;50.160;20.802;2023-04-06T05:36:43;99958.05;;;-0.72;59.79
59315;BME280;46521;50.160;20.802;2023-04-06T05:46:45;99963.63;;;-0.64;59.62
59315;BME280;46521;50.160;20.802;2023-04-06T05:56:46;99958.19;;;-0.45;59.79
59315;BME280;46521;50.160;20.802;2023-04-06T06:06:48;99948.27;;;-0.24;59.51
59315;BME280;46521;50.160;20.802;2023-04-06T06:16:49;99927.59;;;0.04;59.63
59315;BME280;46521;50.160;20.802;2023-04-06T06:26:51;99928.23;;;0.07;59.40
59315;BME280;46521;50.160;20.802;2023-04-06T06:36:52;99923.57;;;0.12;59.25
59315;BME280;46521;50.160;20.802;2023-04-06T06:46:56;99923.38;;;0.15;59.28
59315;BME280;46521;50.160;20.802;2023-04-06T06:56:57;99928.40;;;0.33;59.20
59315;BME280;46521;50.160;20.802;2023-04-06T07:06:59;99931.31;;;0.56;59.19
59315;BME280;46521;50.160;20.802;2023-04-06T07:17:00;99924.74;;;0.77;59.42
59315;BME280;46521;50.160;20.802;2023-04-06T07:27:02;99916.47;;;0.98;59.22
59315;BME280;46521;50.160;20.802;2023-04-06T07:37:04;99919.77;;;0.87;59.49
59315;BME280;46521;50.160;20.802;2023-04-06T07:47:07;99935.25;;;0.76;60.08
59315;BME280;46521;50.160;20.802;2023-04-06T07:57:09;99910.44;;;0.70;60.76
59315;BME280;46521;50.160;20.802;2023-04-06T08:07:11;99903.16;;;0.75;61.14
59315;BME280;46521;50.160;20.802;2023-04-06T08:17:13;99896.50;;;0.71;61.16
59315;BME280;46521;50.160;20.802;2023-04-06T08:27:14;99907.34;;;0.78;61.06
59315;BME280;46521;50.160;20.802;2023-04-06T08:37:16;99902.13;;;0.78;60.97
59315;BME280;46521;50.160;20.802;2023-04-06T08:47:18;99890.80;;;0.79;61.48
59315;BME280;46521;50.160;20.802;2023-04-06T08:57:20;99890.30;;;0.86;61.38
59315;BME280;46521;50.160;20.802;2023-04-06T09:07:21;99879.13;;;0.84;61.88
59315;BME280;46521;50.160;20.802;2023-04-06T09:17:25;99871.88;;;0.62;63.03
59315;BME280;46521;50.160;20.802;2023-04-06T09:27:35;99867.03;;;0.43;63.83
59315;BME280;46521;50.160;20.802;2023-04-06T09:37:37;99863.56;;;0.15;64.61
59315;BME280;46521;50.160;20.802;2023-04-06T09:47:42;99857.22;;;-0.08;65.78
59315;BME280;46521;50.160;20.802;2023-04-06T09:57:50;99854.16;;;-0.29;66.73
59315;BME280;46521;50.160;20.802;2023-04-06T10:07:57;99847.37;;;-0.31;67.16
59315;BME280;46521;50.160;20.802;2023-04-06T10:18:00;99840.24;;;-0.28;67.75
59315;BME280;46521;50.160;20.802;2023-04-06T10:28:05;99838.56;;;-0.29;68.06
59315;BME280;46521;50.160;20.802;2023-04-06T10:38:07;99827.34;;;-0.29;68.31
59315;BME280;46521;50.160;20.802;2023-04-06T10:48:18;99820.93;;;-0.38;69.17
59315;BME280;46521;50.160;20.802;2023-04-06T10:58:20;99816.50;;;-0.36;69.56
59315;BME280;46521;50.160;20.802;2023-04-06T11:08:30;99807.91;;;-0.24;69.73
59315;BME280;46521;50.160;20.802;2023-04-06T11:18:31;99813.11;;;-0.09;69.61
59315;BME280;46521;50.160;20.802;2023-04-06T11:28:33;99795.89;;;0.03;69.93
59315;BME280;46521;50.160;20.802;2023-04-06T11:38:38;99778.02;;;0.11;70.10
59315;BME280;46521;50.160;20.802;2023-04-06T11:48:44;99765.51;;;0.03;70.46
59315;BME280;46521;50.160;20.802;2023-04-06T11:58:46;99752.83;;;-0.02;70.87
59315;BME280;46521;50.160;20.802;2023-04-06T12:08:48;99765.73;;;0.00;70.83
59315;BME280;46521;50.160;20.802;2023-04-06T12:18:50;99752.51;;;0.03;71.45
59315;BME280;46521;50.160;20.802;2023-04-06T12:28:52;99738.91;;;0.12;71.47
59315;BME280;46521;50.160;20.802;2023-04-06T12:38:54;99724.99;;;0.13;71.79
59315;BME280;46521;50.160;20.802;2023-04-06T12:48:55;99733.52;;;0.15;71.77
59315;BME280;46521;50.160;20.802;2023-04-06T12:58:58;99733.72;;;0.12;72.23
59315;BME280;46521;50.160;20.802;2023-04-06T13:09:00;99739.31;;;0.06;72.23
59315;BME280;46521;50.160;20.802;2023-04-06T13:19:02;99742.66;;;0.08;72.29
59315;BME280;46521;50.160;20.802;2023-04-06T13:29:03;99748.89;;;0.06;72.59
59315;BME280;46521;50.160;20.802;2023-04-06T13:39:05;99749.08;;;0.03;72.98
59315;BME280;46521;50.160;20.802;2023-04-06T13:49:06;99742.86;;;0.05;72.89
59315;BME280;46521;50.160;20.802;2023-04-06T13:59:08;99744.31;;;0.09;73.29
59315;BME280;46521;50.160;20.802;2023-04-06T14:09:09;99746.91;;;0.09;73.38
59315;BME280;46521;50.160;20.802;2023-04-06T14:19:13;99735.39;;;0.13;73.75
59315;BME280;46521;50.160;20.802;2023-04-06T14:29:15;99733.22;;;0.20;73.89
59315;BME280;46521;50.160;20.802;2023-04-06T14:39:18;99733.31;;;0.18;73.96
59315;BME280;46521;50.160;20.802;2023-04-06T14:49:20;99732.39;;;0.20;74.13
59315;BME280;46521;50.160;20.802;2023-04-06T14:59:21;99726.07;;;0.24;74.40
59315;BME280;46521;50.160;20.802;2023-04-06T15:09:23;99724.99;;;0.13;74.53
59315;BME280;46521;50.160;20.802;2023-04-06T15:19:24;99730.78;;;0.04;74.66
59315;BME280;46521;50.160;20.802;2023-04-06T15:29:26;99730.25;;;-0.01;74.83
59315;BME280;46521;50.160;20.802;2023-04-06T15:39:27;99710.47;;;-0.04;75.01
59315;BME280;46521;50.160;20.802;2023-04-06T15:49:29;99723.28;;;-0.01;75.31
59315;BME280;46521;50.160;20.802;2023-04-06T15:59:31;99721.30;;;0.03;75.64
59315;BME280;46521;50.160;20.802;2023-04-06T16:09:32;99718.93;;;0.00;75.59
59315;BME280;46521;50.160;20.802;2023-04-06T16:19:34;99716.42;;;-0.02;75.78
59315;BME280;46521;50.160;20.802;2023-04-06T16:29:36;99717.45;;;-0.04;75.90
59315;BME280;46521;50.160;20.802;2023-04-06T16:39:37;99721.06;;;-0.07;76.29
59315;BME280;46521;50.160;20.802;2023-04-06T16:49:39;99726.17;;;-0.05;75.93
59315;BME280;46521;50.160;20.802;2023-04-06T16:59:40;99711.52;;;-0.06;76.73
59315;BME280;46521;50.160;20.802;2023-04-06T17:09:42;99712.64;;;-0.10;76.46
59315;BME280;46521;50.160;20.802;2023-04-06T17:19:43;99711.92;;;-0.12;76.77
59315;BME280;46521;50.160;20.802;2023-04-06T17:29:45;99714.71;;;-0.15;76.99
59315;BME280;46521;50.160;20.802;2023-04-06T17:39:46;99701.81;;;-0.17;77.02
59315;BME280;46521;50.160;20.802;2023-04-06T17:49:48;99701.91;;;-0.19;76.94
59315;BME280;46521;50.160;20.802;2023-04-06T17:59:49;99700.95;;;-0.17;77.14
59315;BME280;46521;50.160;20.802;2023-04-06T18:09:51;99699.31;;;-0.19;77.27
59315;BME280;46521;50.160;20.802;2023-04-06T18:19:53;99705.43;;;-0.20;77.59
59315;BME280;46521;50.160;20.802;2023-04-06T18:29:54;99707.83;;;-0.16;77.27
59315;BME280;46521;50.160;20.802;2023-04-06T18:39:56;99706.05;;;-0.16;77.55
59315;BME280;46521;50.160;20.802;2023-04-06T18:49:57;99701.91;;;-0.19;77.58
59315;BME280;46521;50.160;20.802;2023-04-06T19:00:01;99690.13;;;-0.24;77.80
59315;BME280;46521;50.160;20.802;2023-04-06T19:10:04;99681.60;;;-0.26;78.10
59315;BME280;46521;50.160;20.802;2023-04-06T19:20:07;99684.49;;;-0.31;78.04
59315;BME280;46521;50.160;20.802;2023-04-06T19:30:09;99674.30;;;-0.34;78.05
59315;BME280;46521;50.160;20.802;2023-04-06T19:40:11;99667.22;;;-0.32;78.40
59315;BME280;46521;50.160;20.802;2023-04-06T19:50:13;99665.34;;;-0.30;78.60
59315;BME280;46521;50.160;20.802;2023-04-06T20:00:15;99658.50;;;-0.31;78.48
59315;BME280;46521;50.160;20.802;2023-04-06T20:10:17;99658.89;;;-0.37;78.83
59315;BME280;46521;50.160;20.802;2023-04-06T20:20:19;99652.88;;;-0.38;78.84
59315;BME280;46521;50.160;20.802;2023-04-06T20:30:21;99658.70;;;-0.34;79.02
59315;BME280;46521;50.160;20.802;2023-04-06T20:40:22;99656.73;;;-0.30;78.68
59315;BME280;46521;50.160;20.802;2023-04-06T20:50:24;99641.04;;;-0.29;78.78
59315;BME280;46521;50.160;20.802;2023-04-06T21:00:26;99641.04;;;-0.29;78.96
59315;BME280;46521;50.160;20.802;2023-04-06T21:10:27;99644.56;;;-0.30;79.18
59315;BME280;46521;50.160;20.802;2023-04-06T21:20:28;99632.31;;;-0.28;79.24
59315;BME280;46521;50.160;20.802;2023-04-06T21:30:30;99628.96;;;-0.30;79.24
59315;BME280;46521;50.160;20.802;2023-04-06T21:40:37;99620.45;;;-0.32;79.50
59315;BME280;46521;50.160;20.802;2023-04-06T21:50:38;99613.59;;;-0.33;79.51
59315;BME280;46521;50.160;20.802;2023-04-06T22:00:40;99597.25;;;-0.35;79.78
59315;BME280;46521;50.160;20.802;2023-04-06T22:10:42;99581.66;;;-0.35;79.76
59315;BME280;46521;50.160;20.802;2023-04-06T22:20:44;99579.06;;;-0.35;79.87
59315;BME280;46521;50.160;20.802;2023-04-06T22:30:45;99589.26;;;-0.32;79.80
59315;BME280;46521;50.160;20.802;2023-04-06T22:40:47;99581.16;;;-0.27;79.87
59315;BME280;46521;50.160;20.802;2023-04-06T22:50:48;99573.47;;;-0.29;79.99
59315;BME280;46521;50.160;20.802;2023-04-06T23:00:50;99569.30;;;-0.31;79.84
59315;BME280;46521;50.160;20.802;2023-04-06T23:10:51;99558.27;;;-0.35;79.94
59315;BME280;46521;50.160;20.802;2023-04-06T23:20:53;99547.26;;;-0.39;80.49
59315;BME280;46521;50.160;20.802;2023-04-06T23:30:54;99547.26;;;-0.39;80.50
59315;BME280;46521;50.160;20.802;2023-04-06T23:40:56;99539.36;;;-0.37;80.22
59315;BME280;46521;50.160;20.802;2023-04-06T23:50:57;99537.48;;;-0.35;80.19
